createdAt,value
2022-11-08T07:25:12.156Z,96312.94
2022-11-08T07:26:13.503Z,96315.41
2022-11-08T07:27:15.501Z,96313.81
2022-11-08T07:34:15.272Z,96316.97
2022-11-08T07:35:16.757Z,96320.56
2022-11-08T07:43:53.976Z,96311.97
2022-11-08T07:44:55.349Z,96311.72
2022-11-08T07:45:59.335Z,96296.06
2022-11-08T07:47:00.666Z,96304.03
2022-11-08T07:48:11.028Z,96288.94
2022-11-08T07:49:12.704Z,96304.31
2022-11-08T07:50:17.691Z,96295.59
2022-11-08T07:51:19.326Z,96289.63
2022-11-08T07:52:20.679Z,96295.25
2022-11-08T07:53:22.791Z,96298.22
2022-11-08T07:54:24.172Z,96291.34
2022-11-08T07:55:26.686Z,96269.53
2022-11-08T07:56:28.035Z,96300.41
2022-11-08T07:57:29.542Z,96301.63
2022-11-08T07:58:31.002Z,96313.19
2022-11-08T07:59:32.328Z,96313.31
2022-11-08T08:00:38.613Z,96255.59
2022-11-08T08:01:40.014Z,96308.53
2022-11-08T08:02:41.818Z,96311.63
2022-11-08T08:03:43.335Z,96310.06
2022-11-08T08:04:48.312Z,96317.06
2022-11-08T08:05:59.501Z,96297.63
2022-11-08T08:07:02.055Z,96311.59
2022-11-08T08:08:04.033Z,96306.22
2022-11-08T08:09:05.633Z,96319.03
2022-11-08T08:10:07.485Z,96315.97
2022-11-08T08:11:09.571Z,96317.94
2022-11-08T08:12:11.079Z,96309.66
2022-11-08T08:13:12.467Z,96313.09
2022-11-08T08:14:13.987Z,96315.31
2022-11-08T08:15:15.606Z,96316.38
2022-11-08T08:16:17.195Z,96313.00
2022-11-08T08:17:18.768Z,96318.13
2022-11-08T08:18:21.637Z,96295.72
2022-11-08T08:19:23.172Z,96323.28
2022-11-08T08:20:24.666Z,96314.91
2022-11-08T08:21:28.896Z,96316.28
2022-11-08T08:22:30.419Z,96316.78
2022-11-08T08:23:31.782Z,96321.66
2022-11-08T08:24:33.295Z,96322.78
2022-11-08T08:25:35.243Z,96314.94
2022-11-08T08:26:40.724Z,96322.41
2022-11-08T08:27:54.115Z,96328.34
2022-11-08T08:28:55.484Z,96327.75
2022-11-08T08:29:57.091Z,96321.78
2022-11-08T08:30:58.745Z,96335.91
2022-11-08T08:32:00.531Z,96289.59
2022-11-08T08:33:26.940Z,96319.84
2022-11-08T08:34:25.752Z,96310.59
2022-11-08T08:35:27.097Z,96332.03
2022-11-08T08:36:28.618Z,96322.72
2022-11-08T08:37:29.947Z,96318.19
2022-11-08T08:38:32.783Z,96319.34
2022-11-08T08:39:34.145Z,96323.59
2022-11-08T08:40:35.507Z,96318.66
2022-11-08T08:41:36.994Z,96315.50
2022-11-08T08:42:38.344Z,96332.75
2022-11-08T08:43:39.844Z,96332.06
2022-11-08T08:44:41.206Z,96334.59
2022-11-08T08:58:02.279Z,96340.13
2022-11-08T09:01:47.127Z,96339.59
2022-11-08T09:02:48.790Z,96342.13
2022-11-08T09:03:50.438Z,96341.91
2022-11-08T09:04:51.793Z,96347.34
2022-11-08T09:05:53.223Z,96342.22
2022-11-08T09:06:55.243Z,96346.00
2022-11-08T09:07:56.777Z,96342.78
2022-11-08T09:08:58.117Z,96338.75
2022-11-08T09:09:59.578Z,96350.13
2022-11-08T09:11:01.798Z,96347.59
2022-11-08T09:12:03.483Z,96329.22
2022-11-08T09:13:08.557Z,96336.56
2022-11-08T09:14:09.930Z,96346.50
2022-11-08T09:15:11.382Z,96349.22
2022-11-08T09:16:14.229Z,96359.75
2022-11-08T09:17:16.554Z,96351.81
2022-11-08T09:18:18.756Z,96333.97
2022-11-08T09:19:20.129Z,96357.56
2022-11-08T09:20:22.355Z,96341.72
2022-11-08T09:21:23.809Z,96347.63
2022-11-08T09:22:25.258Z,96358.97
2022-11-08T09:23:26.714Z,96359.50
2022-11-08T09:24:28.052Z,96362.91
2022-11-08T09:25:29.779Z,96368.22
2022-11-08T09:26:31.371Z,96365.31
2022-11-08T09:27:33.063Z,96365.22
2022-11-08T09:28:36.144Z,96344.16
2022-11-08T09:29:37.511Z,96359.03
2022-11-08T09:30:39.027Z,96369.84
2022-11-08T09:31:40.735Z,96349.97
2022-11-08T09:35:09.942Z,96376.44
2022-11-08T09:36:13.596Z,96370.81
2022-11-08T09:37:14.963Z,96376.94
2022-11-08T09:38:17.479Z,96371.50
2022-11-08T09:39:19.192Z,96379.63
2022-11-08T09:40:32.908Z,96375.06
2022-11-08T09:41:36.967Z,96373.56
2022-11-08T09:42:54.587Z,96367.00
2022-11-08T09:44:50.952Z,96381.69
2022-11-08T09:45:53.695Z,96379.53
2022-11-08T09:47:01.722Z,96378.44
2022-11-08T09:48:06.459Z,96375.53
2022-11-08T09:49:16.156Z,96381.41
2022-11-08T09:50:25.676Z,96374.81
2022-11-08T09:51:29.896Z,96378.78
2022-11-08T09:52:33.709Z,96373.63
2022-11-08T09:53:47.304Z,96371.50
2022-11-08T09:54:50.593Z,96367.34
2022-11-08T09:56:01.972Z,96363.13
2022-11-08T09:57:05.332Z,96368.09
2022-11-08T09:58:17.047Z,96374.06
2022-11-08T09:59:18.316Z,96369.59
2022-11-08T10:00:19.756Z,96363.44
2022-11-08T10:01:26.902Z,96357.56
2022-11-08T10:02:28.988Z,96357.09
2022-11-08T10:03:30.748Z,96353.97
2022-11-08T10:04:33.382Z,96364.91
2022-11-08T10:05:47.130Z,96358.28
2022-11-08T10:07:07.370Z,96363.69
2022-11-08T10:08:39.992Z,96366.88
2022-11-08T10:09:53.664Z,96365.03
2022-11-08T10:11:16.340Z,96361.97
2022-11-08T10:12:25.145Z,96361.97
2022-11-08T10:13:32.010Z,96362.41
2022-11-08T10:14:55.114Z,96361.41
2022-11-08T10:16:06.856Z,96357.41
2022-11-08T10:17:13.881Z,96357.38
2022-11-08T10:18:44.333Z,96351.22
2022-11-08T10:20:07.549Z,96347.69
2022-11-08T10:21:21.637Z,96345.31
2022-11-08T10:22:35.896Z,96342.56
2022-11-08T10:24:02.093Z,96338.94
2022-11-08T10:25:20.023Z,96343.41
2022-11-08T10:26:29.437Z,96343.16
2022-11-08T10:27:38.061Z,96335.00
2022-11-08T10:28:50.418Z,96334.09
2022-11-08T10:30:00.157Z,96285.03
2022-11-08T10:31:02.413Z,96322.50
2022-11-08T10:32:14.587Z,96330.03
2022-11-08T10:33:21.667Z,96333.63
2022-11-08T10:34:27.831Z,96339.09
2022-11-08T10:35:45.296Z,96342.38
2022-11-08T10:36:48.438Z,96335.31
2022-11-08T10:37:52.027Z,96335.97
2022-11-08T10:39:11.417Z,96332.22
2022-11-08T10:40:30.072Z,96334.88
2022-11-08T10:41:54.187Z,96327.66
2022-11-08T10:43:09.309Z,96321.53
2022-11-08T10:44:24.291Z,96325.84
2022-11-08T10:45:25.656Z,96332.41
2022-11-08T10:46:44.681Z,96321.03
2022-11-08T10:47:47.035Z,96324.41
2022-11-08T10:48:48.424Z,96327.53
2022-11-08T10:49:49.973Z,96320.97
2022-11-08T10:50:52.635Z,96315.97
2022-11-08T10:51:56.938Z,96321.31
2022-11-08T10:53:00.732Z,96318.69
2022-11-08T10:54:02.169Z,96313.63
2022-11-08T10:55:07.975Z,96319.72
2022-11-08T10:56:09.309Z,96320.19
2022-11-08T10:57:17.755Z,96316.88
2022-11-08T10:58:32.818Z,96321.56
2022-11-08T10:59:34.384Z,96309.44
2022-11-08T11:00:35.968Z,96298.00
2022-11-08T11:01:49.771Z,96309.00
2022-11-08T11:02:59.710Z,96308.13
2022-11-08T11:04:29.183Z,96311.47
2022-11-08T11:05:41.047Z,96302.94
2022-11-08T11:06:42.464Z,96309.38
2022-11-08T11:08:00.684Z,96285.28
2022-11-08T11:09:20.407Z,96303.78
2022-11-08T11:10:34.387Z,96302.34
2022-11-08T11:11:38.005Z,96302.16
2022-11-08T11:12:39.344Z,96299.63
2022-11-08T11:13:40.726Z,96294.50
2022-11-08T11:14:42.243Z,96277.34
2022-11-08T11:16:05.306Z,96298.53
2022-11-08T11:17:17.623Z,96290.47
2022-11-08T11:18:30.474Z,96304.06
2022-11-08T11:19:32.044Z,96298.88
2022-11-08T11:20:33.514Z,96293.59
2022-11-08T11:21:38.268Z,96291.22
2022-11-08T11:22:45.323Z,96279.66
2022-11-08T11:23:52.492Z,96292.47
2022-11-08T11:24:55.172Z,96281.97
2022-11-08T11:25:56.496Z,96287.34
2022-11-08T11:26:57.775Z,96291.69
2022-11-08T11:28:00.549Z,96279.16
2022-11-08T11:29:15.003Z,96294.19
2022-11-08T11:30:32.594Z,96292.09
2022-11-08T11:31:37.849Z,96292.25
2022-11-08T11:32:39.953Z,96289.94
2022-11-08T11:33:49.311Z,96288.13
2022-11-08T11:34:54.724Z,96284.69
2022-11-08T11:36:07.025Z,96287.19
2022-11-08T11:37:10.673Z,96279.41
2022-11-08T11:38:28.018Z,96279.06
2022-11-08T11:39:49.499Z,96277.13
2022-11-08T11:40:55.811Z,96277.84
2022-11-08T11:42:39.185Z,96279.41
2022-11-08T11:44:03.518Z,96264.63
2022-11-08T11:45:18.527Z,96280.47
2022-11-08T11:46:40.278Z,96282.69
2022-11-08T11:47:50.865Z,96270.09
2022-11-08T11:48:59.767Z,96272.72
2022-11-08T11:50:12.355Z,96283.38
2022-11-08T11:51:17.162Z,96283.06
2022-11-08T11:52:19.497Z,96288.44
2022-11-08T11:53:25.169Z,96276.91
2022-11-08T11:54:34.647Z,96278.72
2022-11-08T11:55:49.127Z,96284.72
2022-11-08T11:57:02.880Z,96272.72
2022-11-08T11:58:46.739Z,96284.84
2022-11-08T12:00:10.160Z,96280.31
2022-11-08T12:01:17.676Z,96283.41
2022-11-08T12:02:41.073Z,96280.69
2022-11-08T12:04:25.374Z,96274.78
2022-11-08T12:05:45.324Z,96278.84
2022-11-08T12:07:11.786Z,96281.75
2022-11-08T12:08:42.064Z,96271.00
2022-11-08T12:10:22.351Z,96272.38
2022-11-08T12:12:17.503Z,96273.19
2022-11-08T12:13:30.688Z,96271.34
2022-11-08T12:14:51.298Z,96267.91
2022-11-08T12:15:57.135Z,96270.03
2022-11-08T12:17:23.978Z,96261.53
2022-11-08T12:18:49.995Z,96263.84
2022-11-08T12:20:26.817Z,96266.09
2022-11-08T12:21:45.608Z,96274.31
2022-11-08T12:23:08.318Z,96275.25
2022-11-08T12:24:27.952Z,96266.34
2022-11-08T12:25:49.715Z,96258.44
2022-11-08T12:27:01.691Z,96266.00
2022-11-08T12:28:23.742Z,96264.94
2022-11-08T12:29:59.472Z,96255.19
2022-11-08T12:31:13.396Z,96263.72
2022-11-08T12:32:32.750Z,96264.56
2022-11-08T12:33:42.140Z,96265.00
2022-11-08T12:34:58.891Z,96259.31
2022-11-08T12:36:18.346Z,96264.69
2022-11-08T12:37:50.316Z,96260.56
2022-11-08T12:38:54.208Z,96263.28
2022-11-08T12:40:00.764Z,96263.09
2022-11-08T12:41:23.468Z,96257.94
2022-11-08T12:42:56.144Z,96257.72
2022-11-08T12:44:18.007Z,96260.72
2022-11-08T12:45:57.401Z,96253.25
2022-11-08T12:47:10.937Z,96250.31
2022-11-08T12:48:25.372Z,96253.25
2022-11-08T12:49:51.497Z,96254.97
2022-11-08T12:51:17.607Z,96255.47
2022-11-08T12:52:25.627Z,96252.75
2022-11-08T12:53:38.801Z,96257.28
2022-11-08T12:54:48.140Z,96255.63
2022-11-08T12:55:54.440Z,96252.31
2022-11-08T12:57:01.593Z,96255.50
2022-11-08T12:58:38.999Z,96250.19
2022-11-08T12:59:44.948Z,96255.03
2022-11-08T13:02:21.366Z,96246.91
2022-11-08T13:04:03.221Z,96231.56
2022-11-08T13:05:25.663Z,96247.22
2022-11-08T13:06:43.339Z,96228.31
2022-11-08T13:07:57.396Z,96253.81
2022-11-08T13:09:27.792Z,96244.34
2022-11-08T13:10:33.940Z,96247.19
2022-11-08T13:11:59.595Z,96238.66
2022-11-08T13:13:20.447Z,96245.38
2022-11-08T13:14:23.617Z,96236.53
2022-11-08T13:15:26.094Z,96226.56
2022-11-08T13:16:33.881Z,96249.38
2022-11-08T13:17:38.577Z,96250.03
2022-11-08T13:18:51.205Z,96245.72
2022-11-08T13:19:53.999Z,96243.72
2022-11-08T13:20:56.412Z,96249.03
2022-11-08T13:21:57.863Z,96243.75
2022-11-08T13:23:00.923Z,96236.06
2022-11-08T13:24:09.910Z,96245.34
2022-11-08T13:25:18.615Z,96241.16
2022-11-08T13:26:25.996Z,96232.75
2022-11-08T13:27:41.636Z,96242.59
2022-11-08T13:28:47.245Z,96240.53
2022-11-08T13:29:48.918Z,96219.41
2022-11-08T13:31:02.108Z,96240.53
2022-11-08T13:32:10.988Z,96226.44
2022-11-08T13:33:26.647Z,96236.53
2022-11-08T13:34:54.827Z,96236.31
2022-11-08T13:36:15.185Z,96236.84
2022-11-08T13:37:50.331Z,96236.53
2022-11-08T13:39:10.536Z,96226.44
2022-11-08T13:40:18.039Z,96228.34
2022-11-08T13:41:22.344Z,96196.28
2022-11-08T13:42:23.615Z,96225.69
2022-11-08T13:43:34.747Z,96232.00
2022-11-08T13:44:54.502Z,96229.81
2022-11-08T13:46:16.217Z,96232.44
2022-11-08T13:47:32.710Z,96222.66
2022-11-08T13:48:37.156Z,96221.84
2022-11-08T13:49:38.551Z,96226.56
2022-11-08T13:50:48.399Z,96225.31
2022-11-08T13:51:51.439Z,96233.94
2022-11-08T13:53:07.990Z,96232.25
2022-11-08T13:54:21.842Z,96230.16
2022-11-08T13:55:41.451Z,96230.88
2022-11-08T13:56:51.619Z,96229.94
2022-11-08T13:58:02.034Z,96230.69
2022-11-08T14:46:43.812Z,96230.94
2022-11-08T14:47:46.190Z,96195.38
2022-11-08T14:48:59.555Z,96228.50
2022-11-08T14:50:00.876Z,96229.47
2022-11-08T14:51:05.615Z,96222.53
2022-11-08T14:52:16.866Z,96228.72
2022-11-08T14:53:30.224Z,96218.59
2022-11-08T14:54:40.434Z,96226.78
2022-11-08T14:55:41.916Z,96224.81
2022-11-08T14:56:44.968Z,96231.00
2022-11-08T14:57:46.687Z,96230.38
2022-11-08T14:58:49.712Z,96225.84
2022-11-08T16:00:27.584Z,96209.53
